sensor_id;sensor_type;location;lat;lon;timestamp;temperature;humidity
19813;DHT22;10066;48.108;11.448;2024-03-17T00:02:05;9.00;99.90
19813;DHT22;10066;48.108;11.448;2024-03-17T00:04:32;9.00;99.90
19813;DHT22;10066;48.108;11.448;2024-03-17T00:07:00;9.00;99.90
19813;DHT22;10066;48.108;11.448;2024-03-17T00:09:27;9.00;99.90
19813;DHT22;10066;48.108;11.448;2024-03-17T00:11:53;9.00;99.90
19813;DHT22;10066;48.108;11.448;2024-03-17T00:14:21;9.00;99.90
19813;DHT22;10066;48.108;11.448;2024-03-17T00:16:47;8.90;99.90
19813;DHT22;10066;48.108;11.448;2024-03-17T00:19:15;9.00;99.90
19813;DHT22;10066;48.108;11.448;2024-03-17T00:21:42;8.90;99.90
19813;DHT22;10066;48.108;11.448;2024-03-17T00:24:11;8.90;99.90
19813;DHT22;10066;48.108;11.448;2024-03-17T00:26:39;8.80;99.90
19813;DHT22;10066;48.108;11.448;2024-03-17T00:29:06;8.80;99.90
19813;DHT22;10066;48.108;11.448;2024-03-17T00:31:32;8.80;99.90
19813;DHT22;10066;48.108;11.448;2024-03-17T00:33:59;8.70;99.90
19813;DHT22;10066;48.108;11.448;2024-03-17T00:36:25;8.70;99.90
19813;DHT22;10066;48.108;11.448;2024-03-17T00:38:53;8.70;99.90
19813;DHT22;10066;48.108;11.448;2024-03-17T00:41:20;8.70;99.90
19813;DHT22;10066;48.108;11.448;2024-03-17T00:43:48;8.70;99.90
19813;DHT22;10066;48.108;11.448;2024-03-17T00:46:14;8.70;99.90
19813;DHT22;10066;48.108;11.448;2024-03-17T00:48:41;8.70;99.90
19813;DHT22;10066;48.108;11.448;2024-03-17T00:51:07;8.70;99.90
19813;DHT22;10066;48.108;11.448;2024-03-17T00:53:35;8.70;99.90
19813;DHT22;10066;48.108;11.448;2024-03-17T00:56:01;8.80;99.90
19813;DHT22;10066;48.108;11.448;2024-03-17T00:58:30;8.80;99.90
19813;DHT22;10066;48.108;11.448;2024-03-17T01:00:56;8.80;99.90
19813;DHT22;10066;48.108;11.448;2024-03-17T01:03:23;8.80;99.90
19813;DHT22;10066;48.108;11.448;2024-03-17T01:05:50;8.80;99.90
19813;DHT22;10066;48.108;11.448;2024-03-17T01:08:18;8.80;99.90
19813;DHT22;10066;48.108;11.448;2024-03-17T01:10:45;8.80;99.90
19813;DHT22;10066;48.108;11.448;2024-03-17T01:13:16;8.80;99.90
19813;DHT22;10066;48.108;11.448;2024-03-17T01:15:44;8.70;99.90
19813;DHT22;10066;48.108;11.448;2024-03-17T01:18:11;8.70;99.90
19813;DHT22;10066;48.108;11.448;2024-03-17T01:20:38;8.70;99.90
19813;DHT22;10066;48.108;11.448;2024-03-17T01:23:06;8.70;99.90
19813;DHT22;10066;48.108;11.448;2024-03-17T01:25:34;8.70;99.90
19813;DHT22;10066;48.108;11.448;2024-03-17T01:28:03;8.70;99.90
19813;DHT22;10066;48.108;11.448;2024-03-17T01:30:29;8.70;99.90
19813;DHT22;10066;48.108;11.448;2024-03-17T01:33:00;8.70;99.90
19813;DHT22;10066;48.108;11.448;2024-03-17T01:35:26;8.70;99.90
19813;DHT22;10066;48.108;11.448;2024-03-17T01:37:53;8.70;99.90
19813;DHT22;10066;48.108;11.448;2024-03-17T01:40:20;8.70;99.90
19813;DHT22;10066;48.108;11.448;2024-03-17T01:42:48;8.60;99.90
19813;DHT22;10066;48.108;11.448;2024-03-17T01:45:27;8.50;99.90
19813;DHT22;10066;48.108;11.448;2024-03-17T01:47:55;8.40;99.90
19813;DHT22;10066;48.108;11.448;2024-03-17T01:50:25;8.30;99.90
19813;DHT22;10066;48.108;11.448;2024-03-17T01:52:55;8.30;99.90
19813;DHT22;10066;48.108;11.448;2024-03-17T01:55:22;8.20;99.90
19813;DHT22;10066;48.108;11.448;2024-03-17T01:57:50;8.20;99.90
19813;DHT22;10066;48.108;11.448;2024-03-17T02:00:17;8.20;99.90
19813;DHT22;10066;48.108;11.448;2024-03-17T02:02:44;8.10;99.90
19813;DHT22;10066;48.108;11.448;2024-03-17T02:05:11;8.10;99.90
19813;DHT22;10066;48.108;11.448;2024-03-17T02:07:40;8.10;99.90
19813;DHT22;10066;48.108;11.448;2024-03-17T02:10:07;8.10;99.90
19813;DHT22;10066;48.108;11.448;2024-03-17T02:12:35;8.10;99.90
19813;DHT22;10066;48.108;11.448;2024-03-17T02:15:02;8.20;99.90
19813;DHT22;10066;48.108;11.448;2024-03-17T02:17:31;8.20;99.90
19813;DHT22;10066;48.108;11.448;2024-03-17T02:19:57;8.30;99.90
19813;DHT22;10066;48.108;11.448;2024-03-17T02:22:26;8.30;99.90
19813;DHT22;10066;48.108;11.448;2024-03-17T02:24:53;8.30;99.90
19813;DHT22;10066;48.108;11.448;2024-03-17T02:27:20;8.40;99.90
19813;DHT22;10066;48.108;11.448;2024-03-17T02:29:46;8.40;99.90
19813;DHT22;10066;48.108;11.448;2024-03-17T02:32:14;8.40;99.90
19813;DHT22;10066;48.108;11.448;2024-03-17T02:34:40;8.40;99.90
19813;DHT22;10066;48.108;11.448;2024-03-17T02:37:07;8.50;99.90
19813;DHT22;10066;48.108;11.448;2024-03-17T02:39:35;8.50;99.90
19813;DHT22;10066;48.108;11.448;2024-03-17T02:42:05;8.50;99.90
19813;DHT22;10066;48.108;11.448;2024-03-17T02:44:34;8.50;99.90
19813;DHT22;10066;48.108;11.448;2024-03-17T02:47:02;8.50;99.90
19813;DHT22;10066;48.108;11.448;2024-03-17T02:49:31;8.60;99.90
19813;DHT22;10066;48.108;11.448;2024-03-17T02:52:02;8.60;99.90
19813;DHT22;10066;48.108;11.448;2024-03-17T02:54:30;8.60;99.90
19813;DHT22;10066;48.108;11.448;2024-03-17T02:56:59;8.50;99.90
19813;DHT22;10066;48.108;11.448;2024-03-17T02:59:26;8.50;99.90
19813;DHT22;10066;48.108;11.448;2024-03-17T03:01:54;8.50;99.90
19813;DHT22;10066;48.108;11.448;2024-03-17T03:04:21;8.50;99.90
19813;DHT22;10066;48.108;11.448;2024-03-17T03:06:48;8.50;99.90
19813;DHT22;10066;48.108;11.448;2024-03-17T03:09:16;8.50;99.90
19813;DHT22;10066;48.108;11.448;2024-03-17T03:11:48;8.40;99.90
19813;DHT22;10066;48.108;11.448;2024-03-17T03:14:16;8.30;99.90
19813;DHT22;10066;48.108;11.448;2024-03-17T03:16:43;8.30;99.90
19813;DHT22;10066;48.108;11.448;2024-03-17T03:19:11;8.20;99.90
19813;DHT22;10066;48.108;11.448;2024-03-17T03:21:38;8.20;99.90
19813;DHT22;10066;48.108;11.448;2024-03-17T03:24:05;8.20;99.90
19813;DHT22;10066;48.108;11.448;2024-03-17T03:26:32;8.10;99.90
19813;DHT22;10066;48.108;11.448;2024-03-17T03:29:00;8.10;99.90
19813;DHT22;10066;48.108;11.448;2024-03-17T03:31:29;8.00;99.90
19813;DHT22;10066;48.108;11.448;2024-03-17T03:33:56;8.00;99.90
19813;DHT22;10066;48.108;11.448;2024-03-17T03:36:27;7.90;99.90
19813;DHT22;10066;48.108;11.448;2024-03-17T03:38:54;7.90;99.90
19813;DHT22;10066;48.108;11.448;2024-03-17T03:41:23;7.90;99.90
19813;DHT22;10066;48.108;11.448;2024-03-17T03:43:51;7.90;99.90
19813;DHT22;10066;48.108;11.448;2024-03-17T03:46:18;8.00;99.90
19813;DHT22;10066;48.108;11.448;2024-03-17T03:48:47;8.00;99.90
19813;DHT22;10066;48.108;11.448;2024-03-17T03:51:15;8.00;99.90
19813;DHT22;10066;48.108;11.448;2024-03-17T03:53:42;8.00;99.90
19813;DHT22;10066;48.108;11.448;2024-03-17T03:56:09;8.10;99.90
19813;DHT22;10066;48.108;11.448;2024-03-17T03:58:37;8.10;99.90
19813;DHT22;10066;48.108;11.448;2024-03-17T04:01:06;8.10;99.90
19813;DHT22;10066;48.108;11.448;2024-03-17T04:03:34;8.10;99.90
19813;DHT22;10066;48.108;11.448;2024-03-17T04:06:04;8.10;99.90
19813;DHT22;10066;48.108;11.448;2024-03-17T04:08:32;8.10;99.90
19813;DHT22;10066;48.108;11.448;2024-03-17T04:11:00;8.10;99.90
19813;DHT22;10066;48.108;11.448;2024-03-17T04:13:28;8.10;99.90
19813;DHT22;10066;48.108;11.448;2024-03-17T04:15:56;8.10;99.90
19813;DHT22;10066;48.108;11.448;2024-03-17T04:18:24;8.10;99.90
19813;DHT22;10066;48.108;11.448;2024-03-17T04:20:52;8.00;99.90
19813;DHT22;10066;48.108;11.448;2024-03-17T04:23:21;8.00;99.90
19813;DHT22;10066;48.108;11.448;2024-03-17T04:25:50;8.00;99.90
19813;DHT22;10066;48.108;11.448;2024-03-17T04:28:17;7.90;99.90
19813;DHT22;10066;48.108;11.448;2024-03-17T04:30:44;7.90;99.90
19813;DHT22;10066;48.108;11.448;2024-03-17T04:33:12;7.80;99.90
19813;DHT22;10066;48.108;11.448;2024-03-17T04:35:40;7.80;99.90
19813;DHT22;10066;48.108;11.448;2024-03-17T04:38:08;7.80;99.90
19813;DHT22;10066;48.108;11.448;2024-03-17T04:40:40;7.80;99.90
19813;DHT22;10066;48.108;11.448;2024-03-17T04:43:07;7.80;99.90
19813;DHT22;10066;48.108;11.448;2024-03-17T04:45:34;7.90;99.90
19813;DHT22;10066;48.108;11.448;2024-03-17T04:48:03;8.00;99.90
19813;DHT22;10066;48.108;11.448;2024-03-17T04:50:30;8.00;99.90
19813;DHT22;10066;48.108;11.448;2024-03-17T04:52:58;8.10;99.90
19813;DHT22;10066;48.108;11.448;2024-03-17T04:55:25;8.10;99.90
19813;DHT22;10066;48.108;11.448;2024-03-17T04:57:54;8.20;99.90
19813;DHT22;10066;48.108;11.448;2024-03-17T05:00:22;8.20;99.90
19813;DHT22;10066;48.108;11.448;2024-03-17T05:02:49;8.30;99.90
19813;DHT22;10066;48.108;11.448;2024-03-17T05:05:16;8.40;99.90
19813;DHT22;10066;48.108;11.448;2024-03-17T05:07:43;8.30;99.90
19813;DHT22;10066;48.108;11.448;2024-03-17T05:10:11;8.40;99.90
19813;DHT22;10066;48.108;11.448;2024-03-17T05:12:37;8.40;99.90
19813;DHT22;10066;48.108;11.448;2024-03-17T05:15:07;8.40;99.90
19813;DHT22;10066;48.108;11.448;2024-03-17T05:17:35;8.40;99.90
19813;DHT22;10066;48.108;11.448;2024-03-17T05:20:03;8.50;99.90
19813;DHT22;10066;48.108;11.448;2024-03-17T05:22:31;8.50;99.90
19813;DHT22;10066;48.108;11.448;2024-03-17T05:24:58;8.40;99.90
19813;DHT22;10066;48.108;11.448;2024-03-17T05:27:25;8.50;99.90
19813;DHT22;10066;48.108;11.448;2024-03-17T05:29:52;8.50;99.90
19813;DHT22;10066;48.108;11.448;2024-03-17T05:32:21;8.50;99.90
19813;DHT22;10066;48.108;11.448;2024-03-17T05:34:48;8.50;99.90
19813;DHT22;10066;48.108;11.448;2024-03-17T05:37:16;8.50;99.90
19813;DHT22;10066;48.108;11.448;2024-03-17T05:39:43;8.50;99.90
19813;DHT22;10066;48.108;11.448;2024-03-17T05:42:10;8.50;99.90
19813;DHT22;10066;48.108;11.448;2024-03-17T05:44:37;8.50;99.90
19813;DHT22;10066;48.108;11.448;2024-03-17T05:47:16;8.50;99.90
19813;DHT22;10066;48.108;11.448;2024-03-17T05:49:45;8.50;99.90
19813;DHT22;10066;48.108;11.448;2024-03-17T05:52:12;8.60;99.90
19813;DHT22;10066;48.108;11.448;2024-03-17T05:54:40;8.60;99.90
19813;DHT22;10066;48.108;11.448;2024-03-17T05:57:07;8.60;99.90
19813;DHT22;10066;48.108;11.448;2024-03-17T05:59:35;8.60;99.90
19813;DHT22;10066;48.108;11.448;2024-03-17T06:02:03;8.70;99.90
19813;DHT22;10066;48.108;11.448;2024-03-17T06:04:30;8.70;99.90
19813;DHT22;10066;48.108;11.448;2024-03-17T06:06:58;8.70;99.90
19813;DHT22;10066;48.108;11.448;2024-03-17T06:09:26;8.80;99.90
19813;DHT22;10066;48.108;11.448;2024-03-17T06:11:53;8.80;99.90
19813;DHT22;10066;48.108;11.448;2024-03-17T06:14:20;8.80;99.90
19813;DHT22;10066;48.108;11.448;2024-03-17T06:16:48;8.80;99.90
19813;DHT22;10066;48.108;11.448;2024-03-17T06:19:15;8.80;99.90
19813;DHT22;10066;48.108;11.448;2024-03-17T06:21:43;8.80;99.90
19813;DHT22;10066;48.108;11.448;2024-03-17T06:24:11;8.80;99.90
19813;DHT22;10066;48.108;11.448;2024-03-17T06:26:38;8.80;99.90
19813;DHT22;10066;48.108;11.448;2024-03-17T06:29:05;8.80;99.90
19813;DHT22;10066;48.108;11.448;2024-03-17T06:31:33;8.80;99.90
19813;DHT22;10066;48.108;11.448;2024-03-17T06:34:00;8.80;99.90
19813;DHT22;10066;48.108;11.448;2024-03-17T06:36:27;8.80;99.90
19813;DHT22;10066;48.108;11.448;2024-03-17T06:38:55;8.90;99.90
19813;DHT22;10066;48.108;11.448;2024-03-17T06:41:24;8.90;99.90
19813;DHT22;10066;48.108;11.448;2024-03-17T06:43:51;8.90;99.90
19813;DHT22;10066;48.108;11.448;2024-03-17T06:46:18;9.00;99.90
19813;DHT22;10066;48.108;11.448;2024-03-17T06:48:45;9.00;99.90
19813;DHT22;10066;48.108;11.448;2024-03-17T06:51:13;9.10;99.90
19813;DHT22;10066;48.108;11.448;2024-03-17T06:53:40;9.20;99.90
19813;DHT22;10066;48.108;11.448;2024-03-17T06:56:07;9.30;99.90
19813;DHT22;10066;48.108;11.448;2024-03-17T06:58:36;9.40;99.90
19813;DHT22;10066;48.108;11.448;2024-03-17T07:01:04;9.50;99.90
19813;DHT22;10066;48.108;11.448;2024-03-17T07:03:31;9.60;99.90
19813;DHT22;10066;48.108;11.448;2024-03-17T07:06:00;9.70;99.90
19813;DHT22;10066;48.108;11.448;2024-03-17T07:10:58;10.00;99.90
19813;DHT22;10066;48.108;11.448;2024-03-17T07:13:25;10.10;99.90
19813;DHT22;10066;48.108;11.448;2024-03-17T07:15:54;10.20;99.90
19813;DHT22;10066;48.108;11.448;2024-03-17T07:18:21;10.30;99.90
19813;DHT22;10066;48.108;11.448;2024-03-17T07:20:49;10.40;99.90
19813;DHT22;10066;48.108;11.448;2024-03-17T07:23:16;10.50;99.90
19813;DHT22;10066;48.108;11.448;2024-03-17T07:25:51;10.50;99.90
19813;DHT22;10066;48.108;11.448;2024-03-17T07:28:19;10.60;99.90
19813;DHT22;10066;48.108;11.448;2024-03-17T07:30:48;10.60;99.90
19813;DHT22;10066;48.108;11.448;2024-03-17T07:33:16;10.70;99.90
19813;DHT22;10066;48.108;11.448;2024-03-17T07:35:49;10.70;99.90
19813;DHT22;10066;48.108;11.448;2024-03-17T07:38:17;10.70;99.90
19813;DHT22;10066;48.108;11.448;2024-03-17T07:40:54;10.80;99.90
19813;DHT22;10066;48.108;11.448;2024-03-17T07:43:21;10.80;99.90
19813;DHT22;10066;48.108;11.448;2024-03-17T07:45:57;11.00;99.90
19813;DHT22;10066;48.108;11.448;2024-03-17T07:48:26;11.10;99.90
19813;DHT22;10066;48.108;11.448;2024-03-17T07:50:55;11.20;99.90
19813;DHT22;10066;48.108;11.448;2024-03-17T07:53:22;11.30;99.90
19813;DHT22;10066;48.108;11.448;2024-03-17T07:55:57;11.40;99.90
19813;DHT22;10066;48.108;11.448;2024-03-17T07:58:25;11.50;99.90
19813;DHT22;10066;48.108;11.448;2024-03-17T08:00:53;11.70;99.90
19813;DHT22;10066;48.108;11.448;2024-03-17T08:03:26;11.80;99.90
19813;DHT22;10066;48.108;11.448;2024-03-17T08:05:54;11.90;99.90
19813;DHT22;10066;48.108;11.448;2024-03-17T08:08:22;12.00;99.90
19813;DHT22;10066;48.108;11.448;2024-03-17T08:10:49;12.10;99.90
19813;DHT22;10066;48.108;11.448;2024-03-17T08:13:18;12.20;99.90
19813;DHT22;10066;48.108;11.448;2024-03-17T08:15:46;12.30;99.90
19813;DHT22;10066;48.108;11.448;2024-03-17T08:18:14;12.40;99.90
19813;DHT22;10066;48.108;11.448;2024-03-17T08:20:43;12.40;99.90
19813;DHT22;10066;48.108;11.448;2024-03-17T08:23:12;12.50;99.90
19813;DHT22;10066;48.108;11.448;2024-03-17T08:25:40;12.60;99.90
19813;DHT22;10066;48.108;11.448;2024-03-17T08:28:07;12.70;99.90
19813;DHT22;10066;48.108;11.448;2024-03-17T08:30:34;12.80;99.90
19813;DHT22;10066;48.108;11.448;2024-03-17T08:33:02;12.90;99.90
19813;DHT22;10066;48.108;11.448;2024-03-17T08:35:29;12.90;99.90
19813;DHT22;10066;48.108;11.448;2024-03-17T08:37:57;13.00;99.90
19813;DHT22;10066;48.108;11.448;2024-03-17T08:40:26;13.10;99.90
19813;DHT22;10066;48.108;11.448;2024-03-17T08:42:53;13.20;99.90
19813;DHT22;10066;48.108;11.448;2024-03-17T08:45:20;13.30;99.90
19813;DHT22;10066;48.108;11.448;2024-03-17T08:47:51;13.50;99.90
19813;DHT22;10066;48.108;11.448;2024-03-17T08:50:19;13.50;99.90
19813;DHT22;10066;48.108;11.448;2024-03-17T08:52:46;13.70;99.90
19813;DHT22;10066;48.108;11.448;2024-03-17T08:55:15;13.80;99.90
19813;DHT22;10066;48.108;11.448;2024-03-17T08:57:42;13.70;99.90
19813;DHT22;10066;48.108;11.448;2024-03-17T09:00:10;13.50;99.90
19813;DHT22;10066;48.108;11.448;2024-03-17T09:02:40;13.50;99.90
19813;DHT22;10066;48.108;11.448;2024-03-17T09:05:07;13.50;99.90
19813;DHT22;10066;48.108;11.448;2024-03-17T09:07:35;13.60;99.90
19813;DHT22;10066;48.108;11.448;2024-03-17T09:10:02;13.70;99.90
19813;DHT22;10066;48.108;11.448;2024-03-17T09:12:31;13.90;99.90
19813;DHT22;10066;48.108;11.448;2024-03-17T09:14:59;14.00;99.90
19813;DHT22;10066;48.108;11.448;2024-03-17T09:17:26;14.00;99.90
19813;DHT22;10066;48.108;11.448;2024-03-17T09:19:53;14.10;99.90
19813;DHT22;10066;48.108;11.448;2024-03-17T09:22:20;14.00;99.90
19813;DHT22;10066;48.108;11.448;2024-03-17T09:24:47;13.90;99.90
19813;DHT22;10066;48.108;11.448;2024-03-17T09:27:15;13.70;99.90
19813;DHT22;10066;48.108;11.448;2024-03-17T09:29:47;13.60;99.90
19813;DHT22;10066;48.108;11.448;2024-03-17T09:32:14;13.40;99.90
19813;DHT22;10066;48.108;11.448;2024-03-17T09:34:46;13.20;99.90
19813;DHT22;10066;48.108;11.448;2024-03-17T09:37:14;13.10;99.90
19813;DHT22;10066;48.108;11.448;2024-03-17T09:39:41;13.10;99.90
19813;DHT22;10066;48.108;11.448;2024-03-17T09:42:15;13.10;99.90
19813;DHT22;10066;48.108;11.448;2024-03-17T09:44:43;13.10;99.90
19813;DHT22;10066;48.108;11.448;2024-03-17T09:47:18;13.10;99.90
19813;DHT22;10066;48.108;11.448;2024-03-17T09:49:46;13.10;99.90
19813;DHT22;10066;48.108;11.448;2024-03-17T09:52:19;13.20;99.90
19813;DHT22;10066;48.108;11.448;2024-03-17T09:54:53;13.30;99.90
19813;DHT22;10066;48.108;11.448;2024-03-17T09:57:22;13.50;99.90
19813;DHT22;10066;48.108;11.448;2024-03-17T09:59:51;13.70;99.90
19813;DHT22;10066;48.108;11.448;2024-03-17T10:02:21;14.00;99.90
19813;DHT22;10066;48.108;11.448;2024-03-17T10:04:49;14.10;99.90
19813;DHT22;10066;48.108;11.448;2024-03-17T10:07:16;14.30;99.90
19813;DHT22;10066;48.108;11.448;2024-03-17T10:09:43;14.40;99.90
19813;DHT22;10066;48.108;11.448;2024-03-17T10:12:27;14.50;99.90
19813;DHT22;10066;48.108;11.448;2024-03-17T10:14:58;14.50;99.90
19813;DHT22;10066;48.108;11.448;2024-03-17T10:17:33;14.60;99.90
19813;DHT22;10066;48.108;11.448;2024-03-17T10:20:15;14.70;99.90
19813;DHT22;10066;48.108;11.448;2024-03-17T10:22:59;14.60;99.90
19813;DHT22;10066;48.108;11.448;2024-03-17T10:25:26;14.60;99.90
19813;DHT22;10066;48.108;11.448;2024-03-17T10:27:55;14.80;99.90
19813;DHT22;10066;48.108;11.448;2024-03-17T10:30:23;14.80;99.90
19813;DHT22;10066;48.108;11.448;2024-03-17T10:32:58;14.80;99.90
19813;DHT22;10066;48.108;11.448;2024-03-17T10:35:30;14.80;99.90
19813;DHT22;10066;48.108;11.448;2024-03-17T10:37:59;14.80;99.90
19813;DHT22;10066;48.108;11.448;2024-03-17T10:40:27;14.80;99.90
19813;DHT22;10066;48.108;11.448;2024-03-17T10:42:56;14.70;99.90
19813;DHT22;10066;48.108;11.448;2024-03-17T10:45:25;14.70;99.90
19813;DHT22;10066;48.108;11.448;2024-03-17T10:47:52;14.60;99.90
19813;DHT22;10066;48.108;11.448;2024-03-17T10:50:22;14.70;99.90
19813;DHT22;10066;48.108;11.448;2024-03-17T10:52:50;14.70;99.90
19813;DHT22;10066;48.108;11.448;2024-03-17T10:55:22;14.60;99.90
19813;DHT22;10066;48.108;11.448;2024-03-17T10:57:51;14.60;99.90
19813;DHT22;10066;48.108;11.448;2024-03-17T11:00:20;14.60;99.90
19813;DHT22;10066;48.108;11.448;2024-03-17T11:02:49;14.60;99.90
19813;DHT22;10066;48.108;11.448;2024-03-17T11:05:22;14.60;99.90
19813;DHT22;10066;48.108;11.448;2024-03-17T11:07:51;14.50;99.90
19813;DHT22;10066;48.108;11.448;2024-03-17T11:10:21;14.50;99.90
19813;DHT22;10066;48.108;11.448;2024-03-17T11:12:50;14.30;99.90
19813;DHT22;10066;48.108;11.448;2024-03-17T11:15:40;14.30;99.90
19813;DHT22;10066;48.108;11.448;2024-03-17T11:18:28;14.30;98.60
19813;DHT22;10066;48.108;11.448;2024-03-17T11:20:59;14.20;99.00
19813;DHT22;10066;48.108;11.448;2024-03-17T11:23:28;14.20;99.90
19813;DHT22;10066;48.108;11.448;2024-03-17T11:25:56;14.30;99.90
19813;DHT22;10066;48.108;11.448;2024-03-17T11:28:48;14.30;99.90
19813;DHT22;10066;48.108;11.448;2024-03-17T11:34:36;14.40;99.90
19813;DHT22;10066;48.108;11.448;2024-03-17T11:37:41;14.40;99.30
19813;DHT22;10066;48.108;11.448;2024-03-17T11:40:23;14.50;97.20
19813;DHT22;10066;48.108;11.448;2024-03-17T11:43:00;14.60;99.90
19813;DHT22;10066;48.108;11.448;2024-03-17T11:45:28;14.60;99.90
19813;DHT22;10066;48.108;11.448;2024-03-17T11:47:54;14.70;99.90
19813;DHT22;10066;48.108;11.448;2024-03-17T11:50:23;14.70;99.90
19813;DHT22;10066;48.108;11.448;2024-03-17T11:52:59;14.80;99.90
19813;DHT22;10066;48.108;11.448;2024-03-17T11:55:26;14.90;99.90
19813;DHT22;10066;48.108;11.448;2024-03-17T11:57:55;15.00;99.90
19813;DHT22;10066;48.108;11.448;2024-03-17T12:00:23;14.90;99.90
19813;DHT22;10066;48.108;11.448;2024-03-17T12:02:50;14.70;99.70
19813;DHT22;10066;48.108;11.448;2024-03-17T12:05:20;14.70;99.90
19813;DHT22;10066;48.108;11.448;2024-03-17T12:07:47;14.70;99.90
19813;DHT22;10066;48.108;11.448;2024-03-17T12:10:17;14.80;99.90
19813;DHT22;10066;48.108;11.448;2024-03-17T12:12:47;14.90;99.80
19813;DHT22;10066;48.108;11.448;2024-03-17T12:15:19;14.90;99.90
19813;DHT22;10066;48.108;11.448;2024-03-17T12:17:45;15.00;99.90
19813;DHT22;10066;48.108;11.448;2024-03-17T12:20:19;15.20;99.90
19813;DHT22;10066;48.108;11.448;2024-03-17T12:22:45;15.30;99.90
19813;DHT22;10066;48.108;11.448;2024-03-17T12:25:18;15.50;99.90
19813;DHT22;10066;48.108;11.448;2024-03-17T12:27:45;15.70;99.90
19813;DHT22;10066;48.108;11.448;2024-03-17T12:30:14;15.70;99.90
19813;DHT22;10066;48.108;11.448;2024-03-17T12:32:41;15.70;99.90
19813;DHT22;10066;48.108;11.448;2024-03-17T12:35:13;15.70;99.90
19813;DHT22;10066;48.108;11.448;2024-03-17T12:37:42;15.70;99.90
19813;DHT22;10066;48.108;11.448;2024-03-17T12:40:20;15.50;97.30
19813;DHT22;10066;48.108;11.448;2024-03-17T12:42:48;15.10;92.70
19813;DHT22;10066;48.108;11.448;2024-03-17T12:45:20;14.90;99.50
19813;DHT22;10066;48.108;11.448;2024-03-17T12:47:48;14.90;99.20
19813;DHT22;10066;48.108;11.448;2024-03-17T12:50:15;14.90;99.90
19813;DHT22;10066;48.108;11.448;2024-03-17T12:52:51;14.90;99.90
19813;DHT22;10066;48.108;11.448;2024-03-17T12:55:21;14.90;99.90
19813;DHT22;10066;48.108;11.448;2024-03-17T12:58:06;15.00;99.90
19813;DHT22;10066;48.108;11.448;2024-03-17T13:00:57;15.00;99.90
19813;DHT22;10066;48.108;11.448;2024-03-17T13:03:26;14.90;96.10
19813;DHT22;10066;48.108;11.448;2024-03-17T13:05:54;14.90;98.90
19813;DHT22;10066;48.108;11.448;2024-03-17T13:08:22;14.80;97.00
19813;DHT22;10066;48.108;11.448;2024-03-17T13:10:50;14.70;97.50
19813;DHT22;10066;48.108;11.448;2024-03-17T13:13:18;14.70;98.50
19813;DHT22;10066;48.108;11.448;2024-03-17T13:15:45;14.70;99.40
19813;DHT22;10066;48.108;11.448;2024-03-17T13:18:17;14.70;98.00
19813;DHT22;10066;48.108;11.448;2024-03-17T13:20:46;14.60;96.70
19813;DHT22;10066;48.108;11.448;2024-03-17T13:23:15;14.70;99.90
19813;DHT22;10066;48.108;11.448;2024-03-17T13:25:42;14.70;98.50
19813;DHT22;10066;48.108;11.448;2024-03-17T13:28:12;14.60;96.70
19813;DHT22;10066;48.108;11.448;2024-03-17T13:30:39;14.60;98.30
19813;DHT22;10066;48.108;11.448;2024-03-17T13:33:07;14.60;97.40
19813;DHT22;10066;48.108;11.448;2024-03-17T13:35:36;14.50;97.40
19813;DHT22;10066;48.108;11.448;2024-03-17T13:38:05;14.60;99.90
19813;DHT22;10066;48.108;11.448;2024-03-17T13:40:34;14.80;99.90
19813;DHT22;10066;48.108;11.448;2024-03-17T13:43:01;14.90;99.90
19813;DHT22;10066;48.108;11.448;2024-03-17T13:45:37;15.00;99.90
19813;DHT22;10066;48.108;11.448;2024-03-17T13:48:05;15.00;99.90
19813;DHT22;10066;48.108;11.448;2024-03-17T13:50:35;15.00;99.90
19813;DHT22;10066;48.108;11.448;2024-03-17T13:53:02;14.90;97.70
19813;DHT22;10066;48.108;11.448;2024-03-17T13:55:29;14.90;99.90
19813;DHT22;10066;48.108;11.448;2024-03-17T13:57:57;14.90;99.30
19813;DHT22;10066;48.108;11.448;2024-03-17T14:00:27;14.80;98.00
19813;DHT22;10066;48.108;11.448;2024-03-17T14:02:56;14.70;96.00
19813;DHT22;10066;48.108;11.448;2024-03-17T14:05:24;14.60;97.00
19813;DHT22;10066;48.108;11.448;2024-03-17T14:07:52;14.60;97.50
19813;DHT22;10066;48.108;11.448;2024-03-17T14:10:21;14.50;96.90
19813;DHT22;10066;48.108;11.448;2024-03-17T14:12:51;14.50;98.00
19813;DHT22;10066;48.108;11.448;2024-03-17T14:15:19;14.60;99.90
19813;DHT22;10066;48.108;11.448;2024-03-17T14:17:47;14.60;99.80
19813;DHT22;10066;48.108;11.448;2024-03-17T14:20:18;14.60;97.70
19813;DHT22;10066;48.108;11.448;2024-03-17T14:22:46;14.60;99.60
19813;DHT22;10066;48.108;11.448;2024-03-17T14:25:20;14.70;99.90
19813;DHT22;10066;48.108;11.448;2024-03-17T14:27:48;14.70;99.90
19813;DHT22;10066;48.108;11.448;2024-03-17T14:30:16;14.80;99.90
19813;DHT22;10066;48.108;11.448;2024-03-17T14:32:44;14.80;99.90
19813;DHT22;10066;48.108;11.448;2024-03-17T14:35:13;14.90;99.90
19813;DHT22;10066;48.108;11.448;2024-03-17T14:37:43;14.70;98.00
19813;DHT22;10066;48.108;11.448;2024-03-17T14:40:13;14.70;97.30
19813;DHT22;10066;48.108;11.448;2024-03-17T14:42:46;14.60;96.70
19813;DHT22;10066;48.108;11.448;2024-03-17T14:45:13;14.40;96.80
19813;DHT22;10066;48.108;11.448;2024-03-17T14:47:40;14.30;97.70
19813;DHT22;10066;48.108;11.448;2024-03-17T14:50:09;14.20;98.10
19813;DHT22;10066;48.108;11.448;2024-03-17T14:52:37;14.20;98.20
19813;DHT22;10066;48.108;11.448;2024-03-17T14:55:09;14.20;98.60
19813;DHT22;10066;48.108;11.448;2024-03-17T14:57:36;14.20;99.70
19813;DHT22;10066;48.108;11.448;2024-03-17T15:00:06;14.20;99.90
19813;DHT22;10066;48.108;11.448;2024-03-17T15:02:39;14.20;99.90
19813;DHT22;10066;48.108;11.448;2024-03-17T15:05:07;14.20;99.50
19813;DHT22;10066;48.108;11.448;2024-03-17T15:07:35;14.20;99.90
19813;DHT22;10066;48.108;11.448;2024-03-17T15:10:02;14.20;99.90
19813;DHT22;10066;48.108;11.448;2024-03-17T15:12:31;14.20;99.90
19813;DHT22;10066;48.108;11.448;2024-03-17T15:14:58;14.20;99.90
19813;DHT22;10066;48.108;11.448;2024-03-17T15:17:26;14.20;99.90
19813;DHT22;10066;48.108;11.448;2024-03-17T15:19:53;14.20;99.90
19813;DHT22;10066;48.108;11.448;2024-03-17T15:22:20;14.30;99.90
19813;DHT22;10066;48.108;11.448;2024-03-17T15:24:48;14.30;99.90
19813;DHT22;10066;48.108;11.448;2024-03-17T15:27:15;14.30;99.90
19813;DHT22;10066;48.108;11.448;2024-03-17T15:29:44;14.30;99.90
19813;DHT22;10066;48.108;11.448;2024-03-17T15:32:11;14.30;99.90
19813;DHT22;10066;48.108;11.448;2024-03-17T15:34:39;14.30;99.90
19813;DHT22;10066;48.108;11.448;2024-03-17T15:37:07;14.30;99.90
19813;DHT22;10066;48.108;11.448;2024-03-17T15:39:34;14.20;99.90